Canute, Oklahoma
Current Conditions -  °F | °C
As of 8:15 AM on Saturday 25 Oct 2014 (Local Time) from KELK Reporting Station
Clear Clear  
Wind Chill: 55°   Ceiling: Unl
Heat Index: 55°   Visibility: 10mi
Dew Point: 55°   Wind: 5mph
Humidity: 100%   Direction: 190°S
Pressure: 30.13"   Gusts: NA
Location:  35.42°N, 99.28°W
Report Text: KELK 251315Z AUTO 19004KT 10SM CLR 13/13 A3013 RMK AO2
Loading
Personal Weather Stations






























Interactive Weather Map
Tropical Storm Tracking
New forecast layout! Learn more

10-Day Weather Forecast

Advertisements
Track Severe Weather on mobile